Time;durP1;ratioP1;P1;durP2;ratioP2;P2;SDS_P1;SDS_P2;PMS_P1;PMS_P2;Temp;Humidity;BMP_temperature;BMP_pressure;BME280_temperature;BME280_humidity;BME280_pressure;Samples;Min_cycle;Max_cycle;Signal;HPM_P1;HPM_P2
2023/09/07 00:01:48;;;;;;;;;;;16.50;99.90;;;;;;5083541;28;19920;-69
2023/09/07 00:04:15;;;;;;;;;;;16.40;99.90;;;;;;5085691;28;19927;-69
2023/09/07 00:06:42;;;;;;;;;;;16.40;99.90;;;;;;5086627;28;20017;-69
2023/09/07 00:09:09;;;;;;;;;;;16.40;99.90;;;;;;5087269;28;19927;-68
2023/09/07 00:11:35;;;;;;;;;;;16.30;99.90;;;;;;5087625;28;19927;-69
2023/09/07 00:14:03;;;;;;;;;;;16.30;99.90;;;;;;5087238;28;19927;-68
2023/09/07 00:16:33;;;;;;;;;;;16.20;99.90;;;;;;5086442;28;20223;-69
2023/09/07 00:19:00;;;;;;;;;;;16.20;99.90;;;;;;5087248;28;19960;-68
2023/09/07 00:21:27;;;;;;;;;;;16.20;99.90;;;;;;5087101;28;20207;-68
2023/09/07 00:23:54;;;;;;;;;;;16.10;99.90;;;;;;5087261;28;19966;-69
2023/09/07 00:26:21;;;;;;;;;;;16.10;99.90;;;;;;5086227;28;19992;-69
2023/09/07 00:28:48;;;;;;;;;;;16.10;99.90;;;;;;5087251;28;19921;-69
2023/09/07 00:31:16;;;;;;;;;;;16.00;99.90;;;;;;5086884;28;20473;-68
2023/09/07 00:33:42;;;;;;;;;;;16.00;99.90;;;;;;5086667;28;20174;-69
2023/09/07 00:36:09;;;;;;;;;;;15.90;99.90;;;;;;5086264;28;19927;-68
2023/09/07 00:38:35;;;;;;;;;;;15.90;99.90;;;;;;5086727;28;19920;-69
2023/09/07 00:41:02;;;;;;;;;;;15.90;99.90;;;;;;5086870;28;19920;-69
2023/09/07 00:43:29;;;;;;;;;;;15.80;99.90;;;;;;5086752;28;19920;-68
2023/09/07 00:45:56;;;;;;;;;;;15.80;99.90;;;;;;5086176;28;19920;-70
2023/09/07 00:48:24;;;;;;;;;;;15.80;99.90;;;;;;5086347;28;19992;-69
2023/09/07 00:50:51;;;;;;;;;;;15.80;99.90;;;;;;5086679;28;19988;-69
2023/09/07 00:53:17;;;;;;;;;;;15.80;99.90;;;;;;5086655;28;19948;-68
2023/09/07 00:55:45;;;;;;;;;;;15.80;99.90;;;;;;5086604;28;19920;-69
2023/09/07 00:58:12;;;;;;;;;;;15.70;99.90;;;;;;5086178;28;19924;-68
2023/09/07 01:00:38;;;;;;;;;;;15.70;99.90;;;;;;5086601;28;19924;-68
2023/09/07 01:03:05;;;;;;;;;;;15.70;99.90;;;;;;5086015;28;19921;-68
2023/09/07 01:05:35;;;;;;;;;;;15.70;99.90;;;;;;5086122;28;19988;-68
2023/09/07 01:08:08;;;;;;;;;;;15.60;99.90;;;;;;5085448;28;19952;-69
2023/09/07 01:10:35;;;;;;;;;;;15.60;99.90;;;;;;5086432;28;19979;-68
2023/09/07 01:13:01;;;;;;;;;;;15.60;99.90;;;;;;5086232;28;19920;-68
2023/09/07 01:15:28;;;;;;;;;;;15.50;99.90;;;;;;5085524;28;20208;-68
2023/09/07 01:17:56;;;;;;;;;;;15.50;99.90;;;;;;5085651;28;19920;-68
2023/09/07 01:20:23;;;;;;;;;;;15.50;99.90;;;;;;5093437;28;20204;-69
2023/09/07 01:22:52;;;;;;;;;;;15.40;99.90;;;;;;5085834;28;19984;-68
2023/09/07 01:25:18;;;;;;;;;;;15.40;99.90;;;;;;5085994;28;19987;-68
2023/09/07 01:27:46;;;;;;;;;;;15.40;99.90;;;;;;5085416;28;19921;-68
2023/09/07 01:30:13;;;;;;;;;;;15.30;99.90;;;;;;5085660;28;20224;-69
2023/09/07 01:32:39;;;;;;;;;;;15.30;99.90;;;;;;5085996;28;19928;-68
2023/09/07 01:35:08;;;;;;;;;;;15.30;99.90;;;;;;5085403;28;19930;-68
2023/09/07 01:37:35;;;;;;;;;;;15.20;99.90;;;;;;5076750;28;19920;-69
2023/09/07 01:40:07;;;;;;;;;;;15.20;99.90;;;;;;5085896;28;20117;-68
2023/09/07 01:42:33;;;;;;;;;;;15.20;99.90;;;;;;5085842;28;19927;-68
2023/09/07 01:45:00;;;;;;;;;;;15.20;99.90;;;;;;5085238;28;20341;-69
2023/09/07 01:47:26;;;;;;;;;;;15.20;99.90;;;;;;5085153;28;19920;-68
2023/09/07 01:49:53;;;;;;;;;;;15.10;99.90;;;;;;5092962;28;19955;-69
2023/09/07 01:52:20;;;;;;;;;;;15.10;99.90;;;;;;5085575;28;19987;-68
2023/09/07 01:54:46;;;;;;;;;;;15.00;99.90;;;;;;5085369;28;19962;-70
2023/09/07 01:57:14;;;;;;;;;;;15.00;99.90;;;;;;5084660;28;19995;-68
2023/09/07 01:59:41;;;;;;;;;;;15.00;99.90;;;;;;5085383;28;19920;-68
2023/09/07 02:02:07;;;;;;;;;;;15.00;99.90;;;;;;5085079;28;20233;-68
2023/09/07 02:04:34;;;;;;;;;;;14.90;99.90;;;;;;5092499;28;19920;-69
2023/09/07 02:07:00;;;;;;;;;;;14.80;99.90;;;;;;5084442;28;19920;-70
2023/09/07 02:09:27;;;;;;;;;;;14.80;99.90;;;;;;5085290;28;20092;-68
2023/09/07 02:11:54;;;;;;;;;;;14.70;99.90;;;;;;5085314;28;19927;-68
2023/09/07 02:14:21;;;;;;;;;;;14.70;99.90;;;;;;5084810;28;19987;-68
2023/09/07 02:16:48;;;;;;;;;;;14.60;99.90;;;;;;5084282;28;19920;-68
2023/09/07 02:19:15;;;;;;;;;;;14.60;99.90;;;;;;5084570;28;19926;-69
2023/09/07 02:21:41;;;;;;;;;;;14.60;99.90;;;;;;5084888;28;19920;-68
2023/09/07 02:24:08;;;;;;;;;;;14.60;99.90;;;;;;5084858;28;19927;-69
2023/09/07 02:26:35;;;;;;;;;;;14.50;99.90;;;;;;5083563;28;19920;-68
2023/09/07 02:29:05;;;;;;;;;;;14.50;99.90;;;;;;5084618;28;19927;-69
2023/09/07 02:31:33;;;;;;;;;;;14.50;99.90;;;;;;5084792;28;19952;-69
2023/09/07 02:33:59;;;;;;;;;;;14.50;99.90;;;;;;5084362;28;19942;-69
2023/09/07 02:36:26;;;;;;;;;;;14.40;99.90;;;;;;5083641;28;19998;-69
2023/09/07 02:38:52;;;;;;;;;;;14.40;99.90;;;;;;5084761;28;19928;-69
2023/09/07 02:41:19;;;;;;;;;;;14.30;99.90;;;;;;5084783;28;19927;-68
2023/09/07 02:43:46;;;;;;;;;;;14.30;99.90;;;;;;5084271;28;19920;-68
2023/09/07 02:46:12;;;;;;;;;;;14.30;99.90;;;;;;5083853;28;19920;-68
2023/09/07 02:48:40;;;;;;;;;;;14.30;99.90;;;;;;5084479;28;19921;-69
2023/09/07 02:51:07;;;;;;;;;;;14.20;99.90;;;;;;5084442;28;19942;-69
2023/09/07 02:53:33;;;;;;;;;;;14.20;99.90;;;;;;5084433;28;19926;-68
2023/09/07 02:56:01;;;;;;;;;;;14.20;99.90;;;;;;5083864;28;19920;-69
2023/09/07 02:58:28;;;;;;;;;;;14.20;99.90;;;;;;5083893;28;19931;-69
2023/09/07 03:00:55;;;;;;;;;;;14.10;99.90;;;;;;5084192;28;19920;-69
2023/09/07 03:03:21;;;;;;;;;;;14.10;99.90;;;;;;5083815;28;19920;-69
2023/09/07 03:05:49;;;;;;;;;;;14.00;99.90;;;;;;5083906;28;19920;-69
2023/09/07 03:08:16;;;;;;;;;;;14.00;99.90;;;;;;5083456;28;19927;-69
2023/09/07 03:10:43;;;;;;;;;;;14.00;99.90;;;;;;5084166;28;19920;-69
2023/09/07 03:13:10;;;;;;;;;;;14.00;99.90;;;;;;5083614;28;20208;-69
2023/09/07 03:15:45;;;;;;;;;;;14.00;99.90;;;;;;5081425;28;20127;-68
2023/09/07 03:18:11;;;;;;;;;;;13.90;99.90;;;;;;5083076;28;20263;-68
2023/09/07 03:20:38;;;;;;;;;;;13.80;99.90;;;;;;5083948;28;19920;-69
2023/09/07 03:23:06;;;;;;;;;;;13.80;99.90;;;;;;5083822;28;20275;-69
2023/09/07 03:25:33;;;;;;;;;;;13.80;99.90;;;;;;5081005;28;19920;-69
2023/09/07 03:27:59;;;;;;;;;;;13.70;99.90;;;;;;5083201;28;19983;-68
2023/09/07 03:30:26;;;;;;;;;;;13.80;99.90;;;;;;5083828;28;19921;-68
2023/09/07 03:32:52;;;;;;;;;;;13.70;99.90;;;;;;5083874;28;20156;-68
2023/09/07 03:35:20;;;;;;;;;;;13.80;99.90;;;;;;5082964;28;19983;-68
2023/09/07 03:37:47;;;;;;;;;;;13.70;99.90;;;;;;5082680;28;20212;-68
2023/09/07 03:40:15;;;;;;;;;;;13.70;99.90;;;;;;5083738;28;19958;-68
2023/09/07 03:42:42;;;;;;;;;;;13.70;99.90;;;;;;5083526;28;19984;-68
2023/09/07 03:45:09;;;;;;;;;;;13.60;99.90;;;;;;5083330;28;19928;-69
2023/09/07 03:47:35;;;;;;;;;;;13.60;99.90;;;;;;5082910;28;19980;-69
2023/09/07 03:50:03;;;;;;;;;;;13.50;99.90;;;;;;5081474;28;19959;-68
2023/09/07 03:52:29;;;;;;;;;;;13.50;99.90;;;;;;5083610;28;19920;-69
2023/09/07 03:54:56;;;;;;;;;;;13.50;99.90;;;;;;5083528;28;20165;-68
2023/09/07 03:57:25;;;;;;;;;;;13.50;99.90;;;;;;5082818;28;19968;-69
2023/09/07 03:59:51;;;;;;;;;;;13.40;99.90;;;;;;5083151;28;19927;-69
2023/09/07 04:02:18;;;;;;;;;;;13.40;99.90;;;;;;5083470;28;19984;-73
2023/09/07 04:04:48;;;;;;;;;;;13.30;99.90;;;;;;5090908;28;19921;-69
2023/09/07 04:07:15;;;;;;;;;;;13.40;99.90;;;;;;5082642;28;19926;-69
2023/09/07 04:09:41;;;;;;;;;;;13.30;99.90;;;;;;5083142;28;20222;-69
2023/09/07 04:12:08;;;;;;;;;;;13.30;99.90;;;;;;5083506;28;19927;-69
2023/09/07 04:14:36;;;;;;;;;;;13.30;99.90;;;;;;5083432;28;19983;-69
2023/09/07 04:17:03;;;;;;;;;;;13.30;99.90;;;;;;5082461;28;20243;-69
2023/09/07 04:19:30;;;;;;;;;;;13.30;99.90;;;;;;5083143;28;19987;-68
2023/09/07 04:21:57;;;;;;;;;;;13.30;99.90;;;;;;5083212;28;19988;-69
2023/09/07 04:24:24;;;;;;;;;;;13.20;99.90;;;;;;5082815;28;20259;-69
2023/09/07 04:26:50;;;;;;;;;;;13.20;99.90;;;;;;5082313;28;20267;-69
2023/09/07 04:29:17;;;;;;;;;;;13.20;99.90;;;;;;5082845;28;20258;-69
2023/09/07 04:31:45;;;;;;;;;;;13.20;99.90;;;;;;5083223;28;19920;-68
2023/09/07 04:34:11;;;;;;;;;;;13.10;99.90;;;;;;5082602;28;19996;-68
2023/09/07 04:36:38;;;;;;;;;;;13.10;99.90;;;;;;5082185;28;19983;-69
2023/09/07 04:39:05;;;;;;;;;;;13.10;99.90;;;;;;5083330;28;20167;-69
2023/09/07 04:41:31;;;;;;;;;;;13.10;99.90;;;;;;5083187;28;20247;-69
2023/09/07 04:43:58;;;;;;;;;;;13.00;99.90;;;;;;5082948;28;19925;-69
2023/09/07 04:46:24;;;;;;;;;;;13.10;99.90;;;;;;5082329;28;19928;-69
2023/09/07 04:48:52;;;;;;;;;;;13.00;99.90;;;;;;5087987;28;20332;-69
2023/09/07 04:51:21;;;;;;;;;;;13.10;99.90;;;;;;5085387;28;19920;-69
2023/09/07 04:53:48;;;;;;;;;;;13.00;99.90;;;;;;5086596;28;19967;-70
2023/09/07 04:56:16;;;;;;;;;;;13.00;99.90;;;;;;5086048;28;20138;-70
2023/09/07 04:58:42;;;;;;;;;;;13.00;99.90;;;;;;5086574;28;19963;-69
2023/09/07 05:01:10;;;;;;;;;;;13.00;99.90;;;;;;5086673;28;19926;-69
2023/09/07 05:03:37;;;;;;;;;;;12.90;99.90;;;;;;5089711;28;19923;-69
2023/09/07 05:06:05;;;;;;;;;;;12.90;99.90;;;;;;5090484;28;19991;-69
2023/09/07 05:08:32;;;;;;;;;;;12.90;99.90;;;;;;5085681;28;19920;-69
2023/09/07 05:10:59;;;;;;;;;;;12.90;99.90;;;;;;5086258;28;19956;-69
2023/09/07 05:13:26;;;;;;;;;;;12.90;99.90;;;;;;5086309;28;20179;-69
2023/09/07 05:15:54;;;;;;;;;;;12.80;99.90;;;;;;5086259;28;20196;-70
2023/09/07 05:18:20;;;;;;;;;;;12.90;99.90;;;;;;5086415;28;19983;-69
2023/09/07 05:20:48;;;;;;;;;;;12.80;99.90;;;;;;5092869;28;19983;-69
2023/09/07 05:23:17;;;;;;;;;;;12.90;99.90;;;;;;5085890;28;20390;-69
2023/09/07 05:25:45;;;;;;;;;;;12.90;99.90;;;;;;5082747;28;19927;-69
2023/09/07 05:28:12;;;;;;;;;;;12.80;99.90;;;;;;5085236;28;20258;-68
2023/09/07 05:30:38;;;;;;;;;;;12.90;99.90;;;;;;5085711;28;20321;-71
2023/09/07 05:33:05;;;;;;;;;;;12.90;99.90;;;;;;5085985;28;19928;-72
2023/09/07 05:35:33;;;;;;;;;;;12.80;99.90;;;;;;5093485;28;20208;-71
2023/09/07 05:37:59;;;;;;;;;;;12.80;99.90;;;;;;5085383;28;20216;-71
2023/09/07 05:40:28;;;;;;;;;;;12.80;99.90;;;;;;5086203;28;19979;-71
2023/09/07 05:42:56;;;;;;;;;;;12.80;99.90;;;;;;5084073;28;19920;-71
2023/09/07 05:45:26;;;;;;;;;;;12.80;99.90;;;;;;5079967;28;19935;-70
2023/09/07 05:47:53;;;;;;;;;;;12.80;99.90;;;;;;5097125;28;19946;-70
2023/09/07 05:50:19;;;;;;;;;;;12.80;99.90;;;;;;5088762;28;19927;-70
2023/09/07 05:52:46;;;;;;;;;;;12.80;99.90;;;;;;5085400;28;20230;-71
2023/09/07 05:55:16;;;;;;;;;;;12.90;99.90;;;;;;5083207;28;20420;-71
2023/09/07 05:57:47;;;;;;;;;;;12.90;99.90;;;;;;5083238;28;19928;-71
2023/09/07 06:00:15;;;;;;;;;;;12.90;99.90;;;;;;5086074;28;19920;-70
2023/09/07 06:02:41;;;;;;;;;;;12.90;99.90;;;;;;5072663;28;19921;-70
2023/09/07 06:05:08;;;;;;;;;;;13.00;99.90;;;;;;5080915;28;20115;-70
2023/09/07 06:07:36;;;;;;;;;;;13.00;99.90;;;;;;5083828;28;19920;-70
2023/09/07 06:10:02;;;;;;;;;;;13.10;99.90;;;;;;5085304;28;19942;-71
2023/09/07 06:12:29;;;;;;;;;;;13.10;99.90;;;;;;5085042;28;19920;-71
2023/09/07 06:14:57;;;;;;;;;;;13.10;99.90;;;;;;5085188;28;19920;-71
2023/09/07 06:17:23;;;;;;;;;;;13.20;99.90;;;;;;5084716;28;19959;-71
2023/09/07 06:19:50;;;;;;;;;;;13.30;99.90;;;;;;5085157;28;19921;-70
2023/09/07 06:22:17;;;;;;;;;;;13.30;99.90;;;;;;5084813;28;20208;-71
2023/09/07 06:24:43;;;;;;;;;;;13.40;99.90;;;;;;5084946;28;19920;-71
2023/09/07 06:27:10;;;;;;;;;;;13.50;99.90;;;;;;5084050;28;20406;-70
2023/09/07 06:29:36;;;;;;;;;;;13.50;99.90;;;;;;5085010;28;19920;-70
2023/09/07 06:32:10;;;;;;;;;;;13.60;99.90;;;;;;5082238;28;19983;-71
2023/09/07 06:34:37;;;;;;;;;;;13.70;99.90;;;;;;5084633;28;19987;-70
2023/09/07 06:37:04;;;;;;;;;;;13.80;99.90;;;;;;5083908;28;19927;-71
2023/09/07 06:39:30;;;;;;;;;;;13.90;99.90;;;;;;5084729;28;20216;-71
2023/09/07 06:41:57;;;;;;;;;;;14.00;99.90;;;;;;5084942;28;19983;-71
2023/09/07 06:44:24;;;;;;;;;;;14.10;99.90;;;;;;5084539;28;19920;-70
2023/09/07 06:46:50;;;;;;;;;;;14.20;99.90;;;;;;5086099;28;20115;-71
2023/09/07 06:49:23;;;;;;;;;;;14.30;99.90;;;;;;5099677;28;19979;-71
2023/09/07 06:51:51;;;;;;;;;;;14.40;99.90;;;;;;5084610;28;19991;-70
2023/09/07 06:54:17;;;;;;;;;;;14.50;99.90;;;;;;5084256;28;19984;-72
2023/09/07 06:56:44;;;;;;;;;;;14.60;99.90;;;;;;5083890;28;19920;-71
2023/09/07 06:59:11;;;;;;;;;;;14.70;99.90;;;;;;5084521;28;19928;-71
2023/09/07 07:01:37;;;;;;;;;;;14.80;99.90;;;;;;5084272;28;19921;-71
2023/09/07 07:04:04;;;;;;;;;;;14.90;99.90;;;;;;5084169;28;19920;-71
2023/09/07 07:06:31;;;;;;;;;;;15.00;99.90;;;;;;5083610;28;19987;-71
2023/09/07 07:08:59;;;;;;;;;;;15.10;99.90;;;;;;5084083;28;20230;-70
2023/09/07 07:11:25;;;;;;;;;;;15.20;99.90;;;;;;5084274;28;19920;-71
2023/09/07 07:13:52;;;;;;;;;;;15.30;99.90;;;;;;5083585;28;19920;-71
2023/09/07 07:16:19;;;;;;;;;;;15.50;99.90;;;;;;5083500;28;19943;-71
2023/09/07 07:18:54;;;;;;;;;;;15.60;99.90;;;;;;5085917;28;19926;-70
2023/09/07 07:21:21;;;;;;;;;;;15.80;99.90;;;;;;5085759;28;19927;-71
2023/09/07 07:23:48;;;;;;;;;;;16.00;99.90;;;;;;5083954;28;19980;-71
2023/09/07 07:26:15;;;;;;;;;;;16.10;99.90;;;;;;5083604;28;19921;-71
2023/09/07 07:28:42;;;;;;;;;;;16.30;99.90;;;;;;5083585;28;20226;-71
2023/09/07 07:31:09;;;;;;;;;;;16.50;99.90;;;;;;5084146;28;19928;-71
2023/09/07 07:33:37;;;;;;;;;;;16.60;99.90;;;;;;5086534;28;19986;-70
2023/09/07 07:36:03;;;;;;;;;;;16.70;99.90;;;;;;5087824;28;19920;-71
2023/09/07 07:38:30;;;;;;;;;;;16.80;99.90;;;;;;5083267;28;19984;-71
2023/09/07 07:40:57;;;;;;;;;;;16.90;99.90;;;;;;5083769;28;19927;-71
2023/09/07 07:43:25;;;;;;;;;;;17.00;99.90;;;;;;5083528;28;19921;-71
2023/09/07 07:45:53;;;;;;;;;;;17.10;99.90;;;;;;5083652;28;19921;-71
2023/09/07 07:48:21;;;;;;;;;;;17.20;99.90;;;;;;5080222;28;19984;-71
2023/09/07 07:50:48;;;;;;;;;;;17.30;99.90;;;;;;5077330;28;19920;-71
2023/09/07 07:53:15;;;;;;;;;;;17.30;99.90;;;;;;5083575;28;19921;-71
2023/09/07 07:55:42;;;;;;;;;;;17.40;99.90;;;;;;5083356;28;20204;-71
2023/09/07 07:58:09;;;;;;;;;;;17.50;99.90;;;;;;5082835;28;19951;-71
2023/09/07 08:00:37;;;;;;;;;;;17.50;99.90;;;;;;5083648;28;19920;-71
2023/09/07 08:03:05;;;;;;;;;;;17.60;99.90;;;;;;5083149;28;19956;-71
2023/09/07 08:05:32;;;;;;;;;;;17.60;99.90;;;;;;5083191;28;19958;-71
2023/09/07 08:07:59;;;;;;;;;;;17.80;99.90;;;;;;5082451;28;19926;-72
2023/09/07 08:10:26;;;;;;;;;;;17.90;99.90;;;;;;5081653;28;19921;-71
2023/09/07 08:12:54;;;;;;;;;;;18.00;99.90;;;;;;5083502;28;19920;-71
2023/09/07 08:15:27;;;;;;;;;;;18.10;99.90;;;;;;5081088;28;19920;-71
2023/09/07 08:17:57;;;;;;;;;;;18.10;99.90;;;;;;5080881;28;19958;-72
2023/09/07 08:20:25;;;;;;;;;;;18.30;99.90;;;;;;5091011;28;19920;-71
2023/09/07 08:22:52;;;;;;;;;;;18.40;99.90;;;;;;5083453;28;20115;-72
2023/09/07 08:25:20;;;;;;;;;;;18.50;99.90;;;;;;5085876;28;19927;-71
2023/09/07 08:27:47;;;;;;;;;;;18.70;99.90;;;;;;5086829;28;19963;-72
2023/09/07 08:30:15;;;;;;;;;;;18.80;99.90;;;;;;5087428;28;19958;-71
2023/09/07 08:32:42;;;;;;;;;;;18.90;99.90;;;;;;5087488;28;19920;-72
2023/09/07 08:35:12;;;;;;;;;;;18.90;99.90;;;;;;5086679;28;20204;-71
2023/09/07 08:37:39;;;;;;;;;;;19.10;99.90;;;;;;5079093;28;19927;-71
2023/09/07 08:40:08;;;;;;;;;;;19.20;99.90;;;;;;5087127;28;19963;-71
2023/09/07 08:42:36;;;;;;;;;;;19.20;99.90;;;;;;5087089;28;19927;-71
2023/09/07 08:45:06;;;;;;;;;;;19.30;99.90;;;;;;5086612;28;19920;-72
2023/09/07 08:47:33;;;;;;;;;;;19.40;99.90;;;;;;5086494;28;20167;-71
2023/09/07 08:50:00;;;;;;;;;;;19.50;99.90;;;;;;5094593;28;19987;-71
2023/09/07 08:52:29;;;;;;;;;;;19.60;99.90;;;;;;5086796;28;19947;-71
2023/09/07 08:54:58;;;;;;;;;;;19.80;99.90;;;;;;5086398;28;20263;-73
2023/09/07 08:57:25;;;;;;;;;;;19.90;99.90;;;;;;5085183;28;19920;-71
2023/09/07 08:59:52;;;;;;;;;;;20.00;99.90;;;;;;5086649;28;19920;-72
2023/09/07 09:02:18;;;;;;;;;;;20.00;99.90;;;;;;5086652;28;19992;-71
2023/09/07 09:04:45;;;;;;;;;;;20.10;99.90;;;;;;5086807;28;19983;-72
2023/09/07 09:12:16;;;;;;;;;;;20.50;99.90;;;;;;5043601;28;19927;-71
2023/09/07 09:14:44;;;;;;;;;;;20.60;99.90;;;;;;5046391;28;19992;-71
2023/09/07 09:22:14;;;;;;;;;;;21.00;99.90;;;;;;5047579;28;19928;-71
2023/09/07 09:24:40;;;;;;;;;;;21.10;99.90;;;;;;5063603;28;19983;-70
2023/09/07 09:27:07;;;;;;;;;;;21.20;99.90;;;;;;5065927;28;20003;-71
2023/09/07 09:29:36;;;;;;;;;;;21.30;99.90;;;;;;5064467;28;19992;-70
2023/09/07 09:32:05;;;;;;;;;;;21.40;99.90;;;;;;5063158;28;19995;-72
2023/09/07 09:34:32;;;;;;;;;;;21.40;99.90;;;;;;5065966;28;20111;-71
2023/09/07 09:37:00;;;;;;;;;;;21.50;99.90;;;;;;5065512;28;19952;-71
2023/09/07 09:39:26;;;;;;;;;;;21.60;99.90;;;;;;5065093;28;20144;-71
2023/09/07 09:41:55;;;;;;;;;;;21.80;99.90;;;;;;5064975;28;19948;-69
2023/09/07 09:44:25;;;;;;;;;;;21.90;99.90;;;;;;5062010;28;20187;-76
2023/09/07 09:46:55;;;;;;;;;;;21.90;99.90;;;;;;5065087;28;19952;-72
2023/09/07 09:49:22;;;;;;;;;;;22.00;99.90;;;;;;5064429;28;19920;-72
2023/09/07 09:51:49;;;;;;;;;;;22.00;99.90;;;;;;5065150;28;19928;-72
2023/09/07 09:54:16;;;;;;;;;;;22.20;99.90;;;;;;5065456;28;20170;-72
2023/09/07 09:56:43;;;;;;;;;;;22.20;99.90;;;;;;5065556;28;19988;-72
2023/09/07 09:59:10;;;;;;;;;;;22.40;99.90;;;;;;5064545;28;20140;-72
2023/09/07 10:04:48;;;;;;;;;;;22.60;99.90;;;;;;5034779;28;19923;-71
2023/09/07 10:07:15;;;;;;;;;;;22.70;99.90;;;;;;5065072;28;19927;-71
2023/09/07 10:09:59;;;;;;;;;;;22.90;99.90;;;;;;5065190;28;19984;-71
2023/09/07 10:12:28;;;;;;;;;;;23.00;99.90;;;;;;5065487;28;19963;-71
2023/09/07 10:14:55;;;;;;;;;;;23.10;99.90;;;;;;5064759;28;19956;-71
2023/09/07 10:17:23;;;;;;;;;;;23.20;99.90;;;;;;5068831;23;19942;-71
2023/09/07 10:20:10;;;;;;;;;;;23.20;99.90;;;;;;5064013;28;19955;-71
2023/09/07 10:22:37;;;;;;;;;;;23.40;99.90;;;;;;5065625;28;19921;-72
2023/09/07 10:25:06;;;;;;;;;;;23.40;99.90;;;;;;5065072;28;20119;-72
2023/09/07 10:27:42;;;;;;;;;;;23.50;99.90;;;;;;5065024;28;19921;-72
2023/09/07 10:30:10;;;;;;;;;;;23.60;99.90;;;;;;5064792;28;20162;-71
2023/09/07 10:32:41;;;;;;;;;;;23.70;99.90;;;;;;5065336;28;19990;-71
2023/09/07 10:35:14;;;;;;;;;;;23.70;99.90;;;;;;5064897;28;19988;-72
2023/09/07 10:37:41;;;;;;;;;;;23.80;99.90;;;;;;5065190;28;19921;-72
2023/09/07 10:40:11;;;;;;;;;;;23.90;99.90;;;;;;5064506;28;19959;-72
2023/09/07 10:42:38;;;;;;;;;;;23.90;99.90;;;;;;5065172;28;19921;-72
2023/09/07 10:45:12;;;;;;;;;;;24.00;99.90;;;;;;5064899;28;20283;-72
2023/09/07 10:47:43;;;;;;;;;;;24.10;99.90;;;;;;5064319;28;19924;-72
2023/09/07 10:50:10;;;;;;;;;;;24.20;99.90;;;;;;5064191;28;20067;-72
2023/09/07 10:52:39;;;;;;;;;;;24.40;99.90;;;;;;5065087;28;20044;-72
2023/09/07 10:55:06;;;;;;;;;;;24.50;99.90;;;;;;5064764;28;19927;-72
2023/09/07 10:57:33;;;;;;;;;;;24.70;99.90;;;;;;5064615;28;19921;-72
2023/09/07 10:59:59;;;;;;;;;;;24.80;99.90;;;;;;5064093;28;19956;-72
2023/09/07 11:02:26;;;;;;;;;;;25.00;99.90;;;;;;5064818;28;20119;-72
2023/09/07 11:04:53;;;;;;;;;;;25.10;99.90;;;;;;5064520;28;19956;-72
2023/09/07 11:07:20;;;;;;;;;;;25.20;99.90;;;;;;5064157;28;20016;-72
2023/09/07 11:09:52;;;;;;;;;;;25.30;99.90;;;;;;5063964;28;19952;-72
2023/09/07 11:12:21;;;;;;;;;;;25.40;99.90;;;;;;5064575;28;19921;-72
2023/09/07 11:14:48;;;;;;;;;;;25.50;99.90;;;;;;5064485;28;20164;-72
2023/09/07 11:17:14;;;;;;;;;;;25.70;99.90;;;;;;5064268;28;19987;-72
2023/09/07 11:19:41;;;;;;;;;;;25.80;99.90;;;;;;5063861;28;19948;-72
2023/09/07 11:22:10;;;;;;;;;;;25.90;99.90;;;;;;5064178;28;19921;-71
2023/09/07 11:24:37;;;;;;;;;;;26.00;99.90;;;;;;5064359;28;20001;-71
2023/09/07 11:27:05;;;;;;;;;;;26.20;99.90;;;;;;5064192;28;19960;-72
2023/09/07 11:29:32;;;;;;;;;;;26.30;99.90;;;;;;5063283;28;19920;-72
2023/09/07 11:32:06;;;;;;;;;;;26.40;99.90;;;;;;5064019;28;19949;-72
2023/09/07 11:34:33;;;;;;;;;;;26.50;99.90;;;;;;5064242;28;20168;-72
2023/09/07 11:36:59;;;;;;;;;;;26.70;99.90;;;;;;5064092;28;20167;-72
2023/09/07 11:39:26;;;;;;;;;;;26.80;99.90;;;;;;5063623;28;19921;-72
2023/09/07 11:41:53;;;;;;;;;;;26.90;99.90;;;;;;5064174;28;20172;-72
2023/09/07 11:44:21;;;;;;;;;;;26.90;99.90;;;;;;5064121;28;19927;-71
2023/09/07 11:46:47;;;;;;;;;;;27.00;99.90;;;;;;5063785;28;19955;-72
2023/09/07 11:49:14;;;;;;;;;;;27.10;99.90;;;;;;5063415;28;19927;-73
2023/09/07 11:51:41;;;;;;;;;;;27.20;99.90;;;;;;5063752;28;19920;-72
2023/09/07 11:54:07;;;;;;;;;;;27.30;99.90;;;;;;5063895;28;19958;-72
2023/09/07 11:56:39;;;;;;;;;;;27.40;99.90;;;;;;5063834;28;20004;-72
2023/09/07 11:59:05;;;;;;;;;;;27.60;99.90;;;;;;5063111;28;19927;-72
2023/09/07 12:01:34;;;;;;;;;;;27.70;99.90;;;;;;5063911;28;19985;-72
2023/09/07 12:04:00;;;;;;;;;;;27.90;99.90;;;;;;5063755;28;19927;-72
2023/09/07 12:06:27;;;;;;;;;;;27.90;99.90;;;;;;5063489;28;20115;-72
2023/09/07 12:09:00;;;;;;;;;;;27.90;99.90;;;;;;5063256;28;19984;-71
2023/09/07 12:11:26;;;;;;;;;;;27.80;99.90;;;;;;5063879;28;19967;-72
2023/09/07 12:13:53;;;;;;;;;;;28.00;99.90;;;;;;5063553;28;20215;-72
2023/09/07 12:16:20;;;;;;;;;;;28.10;99.90;;;;;;5063418;28;19984;-72
2023/09/07 12:18:48;;;;;;;;;;;28.30;99.90;;;;;;5063001;28;19980;-71
2023/09/07 12:21:14;;;;;;;;;;;28.40;99.90;;;;;;5063467;28;20188;-71
2023/09/07 12:23:41;;;;;;;;;;;28.60;99.90;;;;;;5063638;28;19988;-72
2023/09/07 12:26:08;;;;;;;;;;;28.70;99.90;;;;;;5063082;28;20263;-72
2023/09/07 12:28:36;;;;;;;;;;;28.80;99.90;;;;;;5063329;28;19921;-72
2023/09/07 12:31:02;;;;;;;;;;;28.90;99.90;;;;;;5063135;28;19963;-71
2023/09/07 12:33:30;;;;;;;;;;;29.10;99.90;;;;;;5063544;28;19921;-72
2023/09/07 12:35:58;;;;;;;;;;;29.20;99.90;;;;;;5063488;28;19921;-72
2023/09/07 12:38:28;;;;;;;;;;;29.20;99.90;;;;;;5063174;28;20236;-73
2023/09/07 12:40:54;;;;;;;;;;;29.10;99.90;;;;;;5063115;28;19990;-73
2023/09/07 12:43:21;;;;;;;;;;;29.00;98.90;;;;;;5063450;28;19920;-73
2023/09/07 12:45:48;;;;;;;;;;;28.90;97.70;;;;;;5063431;28;19956;-73
2023/09/07 12:48:15;;;;;;;;;;;28.80;97.00;;;;;;5063071;28;19988;-73
2023/09/07 12:50:42;;;;;;;;;;;28.90;95.50;;;;;;5062908;28;20161;-73
2023/09/07 12:53:10;;;;;;;;;;;28.90;97.70;;;;;;5063396;28;19984;-72
2023/09/07 12:55:37;;;;;;;;;;;28.90;95.80;;;;;;5063093;28;20280;-74
2023/09/07 12:58:04;;;;;;;;;;;29.10;96.90;;;;;;5063422;28;19956;-72
2023/09/07 13:00:30;;;;;;;;;;;29.30;96.70;;;;;;5062593;28;19979;-72
2023/09/07 13:02:57;;;;;;;;;;;29.40;95.20;;;;;;5063447;28;19989;-72
2023/09/07 13:05:24;;;;;;;;;;;29.60;94.40;;;;;;5063219;28;19928;-73
2023/09/07 13:07:52;;;;;;;;;;;29.80;93.20;;;;;;5063150;28;19927;-73
2023/09/07 13:10:20;;;;;;;;;;;30.00;94.40;;;;;;5063316;28;20097;-74
2023/09/07 13:12:46;;;;;;;;;;;30.20;93.30;;;;;;5066759;28;19996;-73
2023/09/07 13:15:13;;;;;;;;;;;30.40;93.30;;;;;;5066566;28;20234;-73
2023/09/07 13:17:39;;;;;;;;;;;30.60;92.30;;;;;;5066196;28;19921;-73
2023/09/07 13:20:07;;;;;;;;;;;30.80;93.10;;;;;;5065833;28;20212;-74
2023/09/07 13:22:33;;;;;;;;;;;31.00;93.30;;;;;;5066338;28;19980;-73
2023/09/07 13:25:00;;;;;;;;;;;31.20;93.10;;;;;;5066675;28;19996;-73
2023/09/07 13:27:28;;;;;;;;;;;31.20;91.70;;;;;;5066613;28;19921;-73
2023/09/07 13:29:56;;;;;;;;;;;31.30;91.30;;;;;;5066044;28;19984;-73
2023/09/07 13:32:23;;;;;;;;;;;31.30;91.50;;;;;;5066586;28;19928;-72
2023/09/07 13:34:49;;;;;;;;;;;31.30;90.30;;;;;;5066062;28;20212;-73
2023/09/07 13:37:16;;;;;;;;;;;31.40;90.80;;;;;;5066332;28;19927;-73
2023/09/07 13:39:42;;;;;;;;;;;31.50;90.20;;;;;;5065712;28;20112;-73
2023/09/07 13:42:09;;;;;;;;;;;31.60;90.80;;;;;;5066490;28;19956;-74
2023/09/07 13:44:37;;;;;;;;;;;31.70;90.70;;;;;;5066296;28;20130;-73
2023/09/07 13:47:04;;;;;;;;;;;31.80;90.50;;;;;;5066043;28;19967;-73
2023/09/07 13:49:30;;;;;;;;;;;31.80;90.70;;;;;;5065243;28;19960;-73
2023/09/07 13:51:57;;;;;;;;;;;31.70;90.90;;;;;;5065972;28;19921;-73
2023/09/07 13:54:23;;;;;;;;;;;31.70;91.50;;;;;;5065820;28;20235;-73
2023/09/07 13:56:50;;;;;;;;;;;31.80;91.10;;;;;;5066033;28;19921;-72
2023/09/07 13:59:17;;;;;;;;;;;31.80;90.20;;;;;;5065487;28;19920;-72
2023/09/07 14:01:45;;;;;;;;;;;31.60;91.00;;;;;;5065787;28;19921;-73
2023/09/07 14:04:12;;;;;;;;;;;31.50;90.70;;;;;;5065646;28;20215;-72
2023/09/07 14:06:38;;;;;;;;;;;31.40;91.90;;;;;;5065739;28;19920;-73
2023/09/07 14:09:06;;;;;;;;;;;31.40;91.00;;;;;;5065233;28;19927;-72
2023/09/07 14:11:33;;;;;;;;;;;31.40;90.20;;;;;;5065549;28;19920;-72
2023/09/07 14:13:59;;;;;;;;;;;31.40;90.10;;;;;;5065826;28;19921;-72
2023/09/07 14:16:26;;;;;;;;;;;31.30;90.40;;;;;;5065431;28;19927;-73
2023/09/07 14:18:54;;;;;;;;;;;31.30;87.90;;;;;;5064803;28;19921;-73
2023/09/07 14:21:21;;;;;;;;;;;31.20;89.60;;;;;;5064794;28;20212;-72
2023/09/07 14:23:47;;;;;;;;;;;31.10;86.80;;;;;;5065065;28;19956;-72
2023/09/07 14:26:14;;;;;;;;;;;31.10;87.20;;;;;;5065056;28;20244;-72
2023/09/07 14:28:41;;;;;;;;;;;30.90;84.50;;;;;;5065095;28;19927;-73
2023/09/07 14:31:08;;;;;;;;;;;30.80;87.90;;;;;;5065182;28;19992;-72